sensor_id;sensor_type;location;lat;lon;timestamp;temperature;humidity
40696;DHT22;40425;51.102;17.208;2023-04-25T00:04:09;10.10;99.90
40696;DHT22;40425;51.102;17.208;2023-04-25T00:09:10;10.10;99.90
40696;DHT22;40425;51.102;17.208;2023-04-25T00:14:11;10.00;99.90
40696;DHT22;40425;51.102;17.208;2023-04-25T00:19:12;10.00;99.90
40696;DHT22;40425;51.102;17.208;2023-04-25T00:24:14;10.00;99.90
40696;DHT22;40425;51.102;17.208;2023-04-25T00:29:15;10.00;99.90
40696;DHT22;40425;51.102;17.208;2023-04-25T00:34:15;10.00;99.90
40696;DHT22;40425;51.102;17.208;2023-04-25T00:39:16;10.10;99.90
40696;DHT22;40425;51.102;17.208;2023-04-25T00:44:17;10.10;99.90
40696;DHT22;40425;51.102;17.208;2023-04-25T00:49:18;10.10;99.90
40696;DHT22;40425;51.102;17.208;2023-04-25T00:54:19;10.00;99.90
40696;DHT22;40425;51.102;17.208;2023-04-25T00:59:20;10.00;99.90
40696;DHT22;40425;51.102;17.208;2023-04-25T01:04:21;9.90;99.90
40696;DHT22;40425;51.102;17.208;2023-04-25T01:09:22;9.80;99.90
40696;DHT22;40425;51.102;17.208;2023-04-25T01:14:24;9.70;99.90
40696;DHT22;40425;51.102;17.208;2023-04-25T01:19:25;9.70;99.90
40696;DHT22;40425;51.102;17.208;2023-04-25T01:24:26;9.70;99.90
40696;DHT22;40425;51.102;17.208;2023-04-25T01:29:28;9.70;99.90
40696;DHT22;40425;51.102;17.208;2023-04-25T01:34:29;9.60;99.90
40696;DHT22;40425;51.102;17.208;2023-04-25T01:39:30;9.60;99.90
40696;DHT22;40425;51.102;17.208;2023-04-25T01:44:31;9.60;99.90
40696;DHT22;40425;51.102;17.208;2023-04-25T01:49:31;9.60;99.90
40696;DHT22;40425;51.102;17.208;2023-04-25T01:54:32;9.60;99.90
40696;DHT22;40425;51.102;17.208;2023-04-25T01:59:33;9.50;99.90
40696;DHT22;40425;51.102;17.208;2023-04-25T02:04:34;9.50;99.90
40696;DHT22;40425;51.102;17.208;2023-04-25T02:09:35;9.40;99.90
40696;DHT22;40425;51.102;17.208;2023-04-25T02:14:36;9.40;99.90
40696;DHT22;40425;51.102;17.208;2023-04-25T02:19:37;9.30;99.90
40696;DHT22;40425;51.102;17.208;2023-04-25T02:24:37;9.30;99.90
40696;DHT22;40425;51.102;17.208;2023-04-25T02:29:38;9.20;99.90
40696;DHT22;40425;51.102;17.208;2023-04-25T02:34:39;9.20;99.90
40696;DHT22;40425;51.102;17.208;2023-04-25T02:39:40;9.10;99.90
40696;DHT22;40425;51.102;17.208;2023-04-25T02:44:41;9.00;99.90
40696;DHT22;40425;51.102;17.208;2023-04-25T02:49:42;9.00;99.90
40696;DHT22;40425;51.102;17.208;2023-04-25T02:54:43;9.00;99.90
40696;DHT22;40425;51.102;17.208;2023-04-25T02:59:43;8.90;99.90
40696;DHT22;40425;51.102;17.208;2023-04-25T03:04:44;8.80;99.90
40696;DHT22;40425;51.102;17.208;2023-04-25T03:09:46;9.00;99.90
40696;DHT22;40425;51.102;17.208;2023-04-25T03:14:47;9.00;99.90
40696;DHT22;40425;51.102;17.208;2023-04-25T03:19:48;9.00;99.90
40696;DHT22;40425;51.102;17.208;2023-04-25T03:24:50;9.00;99.90
40696;DHT22;40425;51.102;17.208;2023-04-25T03:29:51;8.90;99.90
40696;DHT22;40425;51.102;17.208;2023-04-25T03:34:52;8.90;99.90
40696;DHT22;40425;51.102;17.208;2023-04-25T03:39:52;9.00;99.90
40696;DHT22;40425;51.102;17.208;2023-04-25T03:44:53;8.90;99.90
40696;DHT22;40425;51.102;17.208;2023-04-25T03:49:54;8.90;99.90
40696;DHT22;40425;51.102;17.208;2023-04-25T03:54:55;8.90;99.90
40696;DHT22;40425;51.102;17.208;2023-04-25T03:59:56;9.00;99.90
40696;DHT22;40425;51.102;17.208;2023-04-25T04:04:57;8.90;99.90
40696;DHT22;40425;51.102;17.208;2023-04-25T04:09:58;9.00;99.90
40696;DHT22;40425;51.102;17.208;2023-04-25T04:14:59;9.00;99.90
40696;DHT22;40425;51.102;17.208;2023-04-25T04:20:00;9.00;99.90
40696;DHT22;40425;51.102;17.208;2023-04-25T04:25:01;9.10;99.90
40696;DHT22;40425;51.102;17.208;2023-04-25T04:30:03;9.20;99.90
40696;DHT22;40425;51.102;17.208;2023-04-25T04:35:05;9.30;99.90
40696;DHT22;40425;51.102;17.208;2023-04-25T04:40:07;9.50;99.90
40696;DHT22;40425;51.102;17.208;2023-04-25T04:45:09;9.60;99.90
40696;DHT22;40425;51.102;17.208;2023-04-25T04:50:10;9.60;99.90
40696;DHT22;40425;51.102;17.208;2023-04-25T04:55:11;9.70;99.90
40696;DHT22;40425;51.102;17.208;2023-04-25T05:00:13;9.90;99.90
40696;DHT22;40425;51.102;17.208;2023-04-25T05:05:13;9.90;99.90
40696;DHT22;40425;51.102;17.208;2023-04-25T05:10:14;10.10;99.90
40696;DHT22;40425;51.102;17.208;2023-04-25T05:15:15;10.00;99.90
40696;DHT22;40425;51.102;17.208;2023-04-25T05:20:16;10.10;99.90
40696;DHT22;40425;51.102;17.208;2023-04-25T05:25:19;10.30;99.90
40696;DHT22;40425;51.102;17.208;2023-04-25T05:30:20;10.30;99.90
40696;DHT22;40425;51.102;17.208;2023-04-25T05:35:22;10.30;99.90
40696;DHT22;40425;51.102;17.208;2023-04-25T05:40:23;10.30;99.90
40696;DHT22;40425;51.102;17.208;2023-04-25T05:45:24;10.30;99.90
40696;DHT22;40425;51.102;17.208;2023-04-25T05:50:25;10.40;99.90
40696;DHT22;40425;51.102;17.208;2023-04-25T05:55:26;10.40;99.90
40696;DHT22;40425;51.102;17.208;2023-04-25T06:00:27;10.30;99.90
40696;DHT22;40425;51.102;17.208;2023-04-25T06:05:28;10.50;99.90
40696;DHT22;40425;51.102;17.208;2023-04-25T06:10:29;10.80;99.90
40696;DHT22;40425;51.102;17.208;2023-04-25T06:15:32;10.80;99.90
40696;DHT22;40425;51.102;17.208;2023-04-25T06:20:35;10.80;99.90
40696;DHT22;40425;51.102;17.208;2023-04-25T06:25:36;10.90;99.90
40696;DHT22;40425;51.102;17.208;2023-04-25T06:30:37;11.00;99.90
40696;DHT22;40425;51.102;17.208;2023-04-25T06:35:38;10.60;99.90
40696;DHT22;40425;51.102;17.208;2023-04-25T06:40:39;10.40;99.90
40696;DHT22;40425;51.102;17.208;2023-04-25T06:45:40;10.70;99.90
40696;DHT22;40425;51.102;17.208;2023-04-25T06:50:42;10.60;99.90
40696;DHT22;40425;51.102;17.208;2023-04-25T06:55:43;10.60;99.90
40696;DHT22;40425;51.102;17.208;2023-04-25T07:00:44;10.60;99.90
40696;DHT22;40425;51.102;17.208;2023-04-25T07:05:45;10.70;99.90
40696;DHT22;40425;51.102;17.208;2023-04-25T07:10:46;11.00;99.90
40696;DHT22;40425;51.102;17.208;2023-04-25T07:15:47;10.80;99.90
40696;DHT22;40425;51.102;17.208;2023-04-25T07:20:49;11.00;99.90
40696;DHT22;40425;51.102;17.208;2023-04-25T07:25:49;11.60;99.90
40696;DHT22;40425;51.102;17.208;2023-04-25T07:30:50;11.40;99.90
40696;DHT22;40425;51.102;17.208;2023-04-25T07:35:52;11.50;99.90
40696;DHT22;40425;51.102;17.208;2023-04-25T07:40:53;11.70;99.90
40696;DHT22;40425;51.102;17.208;2023-04-25T07:45:54;12.20;99.90
40696;DHT22;40425;51.102;17.208;2023-04-25T07:50:55;11.80;99.60
40696;DHT22;40425;51.102;17.208;2023-04-25T07:55:56;11.60;99.80
40696;DHT22;40425;51.102;17.208;2023-04-25T08:00:57;11.70;99.90
40696;DHT22;40425;51.102;17.208;2023-04-25T08:05:58;11.70;98.50
40696;DHT22;40425;51.102;17.208;2023-04-25T08:10:59;12.00;98.10
40696;DHT22;40425;51.102;17.208;2023-04-25T08:16:00;11.70;97.70
40696;DHT22;40425;51.102;17.208;2023-04-25T08:21:01;11.40;99.60
40696;DHT22;40425;51.102;17.208;2023-04-25T08:26:02;11.90;99.70
40696;DHT22;40425;51.102;17.208;2023-04-25T08:31:03;12.60;99.70
40696;DHT22;40425;51.102;17.208;2023-04-25T08:36:05;12.60;97.70
40696;DHT22;40425;51.102;17.208;2023-04-25T08:41:06;13.00;97.90
40696;DHT22;40425;51.102;17.208;2023-04-25T08:46:08;13.00;96.70
40696;DHT22;40425;51.102;17.208;2023-04-25T08:51:10;12.90;97.50
40696;DHT22;40425;51.102;17.208;2023-04-25T08:56:17;13.10;96.90
40696;DHT22;40425;51.102;17.208;2023-04-25T09:01:18;12.20;98.70
40696;DHT22;40425;51.102;17.208;2023-04-25T09:06:19;12.10;98.90
40696;DHT22;40425;51.102;17.208;2023-04-25T09:11:20;12.20;99.50
40696;DHT22;40425;51.102;17.208;2023-04-25T09:16:21;12.50;98.40
40696;DHT22;40425;51.102;17.208;2023-04-25T09:21:22;12.50;99.10
40696;DHT22;40425;51.102;17.208;2023-04-25T09:26:23;13.10;97.90
40696;DHT22;40425;51.102;17.208;2023-04-25T09:31:24;13.00;96.20
40696;DHT22;40425;51.102;17.208;2023-04-25T09:36:26;13.20;97.10
40696;DHT22;40425;51.102;17.208;2023-04-25T09:41:27;13.20;96.20
40696;DHT22;40425;51.102;17.208;2023-04-25T09:46:34;12.50;96.30
40696;DHT22;40425;51.102;17.208;2023-04-25T09:51:35;12.80;97.50
40696;DHT22;40425;51.102;17.208;2023-04-25T09:56:36;12.50;98.20
40696;DHT22;40425;51.102;17.208;2023-04-25T10:01:40;12.50;97.80
40696;DHT22;40425;51.102;17.208;2023-04-25T10:06:43;12.80;98.70
40696;DHT22;40425;51.102;17.208;2023-04-25T10:11:46;12.90;97.20
40696;DHT22;40425;51.102;17.208;2023-04-25T10:16:48;13.20;96.10
40696;DHT22;40425;51.102;17.208;2023-04-25T10:21:57;12.80;97.10
40696;DHT22;40425;51.102;17.208;2023-04-25T10:26:59;12.70;95.90
40696;DHT22;40425;51.102;17.208;2023-04-25T10:32:00;13.00;96.80
40696;DHT22;40425;51.102;17.208;2023-04-25T10:37:01;13.60;94.50
40696;DHT22;40425;51.102;17.208;2023-04-25T10:42:04;13.80;93.60
40696;DHT22;40425;51.102;17.208;2023-04-25T10:47:08;14.00;92.20
40696;DHT22;40425;51.102;17.208;2023-04-25T10:52:18;14.40;91.80
40696;DHT22;40425;51.102;17.208;2023-04-25T10:57:39;13.90;92.70
40696;DHT22;40425;51.102;17.208;2023-04-25T11:02:51;13.30;93.00
40696;DHT22;40425;51.102;17.208;2023-04-25T11:07:53;13.00;92.30
40696;DHT22;40425;51.102;17.208;2023-04-25T11:12:58;13.80;93.70
40696;DHT22;40425;51.102;17.208;2023-04-25T11:18:00;14.00;91.10
40696;DHT22;40425;51.102;17.208;2023-04-25T11:23:01;13.90;89.70
40696;DHT22;40425;51.102;17.208;2023-04-25T11:28:04;14.30;89.90
40696;DHT22;40425;51.102;17.208;2023-04-25T11:33:06;14.50;88.70
40696;DHT22;40425;51.102;17.208;2023-04-25T11:38:07;14.30;88.70
40696;DHT22;40425;51.102;17.208;2023-04-25T11:43:09;14.50;89.20
40696;DHT22;40425;51.102;17.208;2023-04-25T11:48:10;14.70;86.00
40696;DHT22;40425;51.102;17.208;2023-04-25T11:53:11;14.60;87.20
40696;DHT22;40425;51.102;17.208;2023-04-25T11:58:12;14.60;87.40
40696;DHT22;40425;51.102;17.208;2023-04-25T12:03:14;14.30;83.20
40696;DHT22;40425;51.102;17.208;2023-04-25T12:08:18;14.10;86.30
40696;DHT22;40425;51.102;17.208;2023-04-25T12:13:21;13.60;86.00
40696;DHT22;40425;51.102;17.208;2023-04-25T12:18:25;13.60;86.00
40696;DHT22;40425;51.102;17.208;2023-04-25T12:23:29;13.40;86.60
40696;DHT22;40425;51.102;17.208;2023-04-25T12:28:32;13.60;83.00
40696;DHT22;40425;51.102;17.208;2023-04-25T12:33:37;13.40;81.60
40696;DHT22;40425;51.102;17.208;2023-04-25T12:38:41;13.50;84.60
40696;DHT22;40425;51.102;17.208;2023-04-25T12:43:42;13.70;82.50
40696;DHT22;40425;51.102;17.208;2023-04-25T12:48:43;13.70;79.50
40696;DHT22;40425;51.102;17.208;2023-04-25T12:53:44;13.80;83.20
40696;DHT22;40425;51.102;17.208;2023-04-25T12:58:45;13.60;82.20
40696;DHT22;40425;51.102;17.208;2023-04-25T13:03:46;13.90;81.40
40696;DHT22;40425;51.102;17.208;2023-04-25T13:08:47;13.40;81.30
40696;DHT22;40425;51.102;17.208;2023-04-25T13:13:48;13.40;84.00
40696;DHT22;40425;51.102;17.208;2023-04-25T13:18:49;13.40;82.10
40696;DHT22;40425;51.102;17.208;2023-04-25T13:23:50;13.40;85.60
40696;DHT22;40425;51.102;17.208;2023-04-25T13:28:51;13.80;87.20
40696;DHT22;40425;51.102;17.208;2023-04-25T13:33:51;14.00;81.50
40696;DHT22;40425;51.102;17.208;2023-04-25T13:38:52;14.10;85.20
40696;DHT22;40425;51.102;17.208;2023-04-25T13:43:53;14.20;80.70
40696;DHT22;40425;51.102;17.208;2023-04-25T13:48:54;13.90;83.10
40696;DHT22;40425;51.102;17.208;2023-04-25T13:53:55;13.70;81.70
40696;DHT22;40425;51.102;17.208;2023-04-25T13:58:56;13.40;82.90
40696;DHT22;40425;51.102;17.208;2023-04-25T14:03:57;13.30;82.80
40696;DHT22;40425;51.102;17.208;2023-04-25T14:08:58;13.10;84.60
40696;DHT22;40425;51.102;17.208;2023-04-25T14:14:01;13.50;90.50
40696;DHT22;40425;51.102;17.208;2023-04-25T14:19:02;13.60;85.70
40696;DHT22;40425;51.102;17.208;2023-04-25T14:24:04;13.90;84.90
40696;DHT22;40425;51.102;17.208;2023-04-25T14:29:06;13.40;83.30
40696;DHT22;40425;51.102;17.208;2023-04-25T14:34:08;13.40;82.40
40696;DHT22;40425;51.102;17.208;2023-04-25T14:39:09;13.40;83.20
40696;DHT22;40425;51.102;17.208;2023-04-25T14:44:10;13.20;81.40
40696;DHT22;40425;51.102;17.208;2023-04-25T14:49:11;12.80;86.40
40696;DHT22;40425;51.102;17.208;2023-04-25T14:54:12;12.70;86.60
40696;DHT22;40425;51.102;17.208;2023-04-25T14:59:13;12.70;88.80
40696;DHT22;40425;51.102;17.208;2023-04-25T15:04:14;12.40;90.30
40696;DHT22;40425;51.102;17.208;2023-04-25T15:09:15;12.40;90.20
40696;DHT22;40425;51.102;17.208;2023-04-25T15:14:17;12.40;90.50
40696;DHT22;40425;51.102;17.208;2023-04-25T15:19:18;12.10;91.30
40696;DHT22;40425;51.102;17.208;2023-04-25T15:24:19;12.10;90.70
40696;DHT22;40425;51.102;17.208;2023-04-25T15:29:20;12.00;91.50
40696;DHT22;40425;51.102;17.208;2023-04-25T15:34:21;11.80;90.40
40696;DHT22;40425;51.102;17.208;2023-04-25T15:39:22;11.70;89.10
40696;DHT22;40425;51.102;17.208;2023-04-25T15:44:24;11.70;90.50
40696;DHT22;40425;51.102;17.208;2023-04-25T15:49:25;11.70;91.40
40696;DHT22;40425;51.102;17.208;2023-04-25T15:54:25;11.80;90.70
40696;DHT22;40425;51.102;17.208;2023-04-25T15:59:27;11.80;91.50
40696;DHT22;40425;51.102;17.208;2023-04-25T16:04:29;11.80;92.20
40696;DHT22;40425;51.102;17.208;2023-04-25T16:09:35;11.70;92.70
40696;DHT22;40425;51.102;17.208;2023-04-25T16:14:37;11.60;93.40
40696;DHT22;40425;51.102;17.208;2023-04-25T16:19:37;11.50;94.30
40696;DHT22;40425;51.102;17.208;2023-04-25T16:24:38;11.50;95.20
40696;DHT22;40425;51.102;17.208;2023-04-25T16:29:40;11.50;96.80
40696;DHT22;40425;51.102;17.208;2023-04-25T16:34:41;11.50;99.50
40696;DHT22;40425;51.102;17.208;2023-04-25T16:39:43;11.40;99.90
40696;DHT22;40425;51.102;17.208;2023-04-25T16:44:44;11.40;99.90
40696;DHT22;40425;51.102;17.208;2023-04-25T16:49:45;11.40;99.90
40696;DHT22;40425;51.102;17.208;2023-04-25T16:54:46;11.10;98.10
40696;DHT22;40425;51.102;17.208;2023-04-25T16:59:48;11.10;98.90
40696;DHT22;40425;51.102;17.208;2023-04-25T17:04:50;11.00;98.90
40696;DHT22;40425;51.102;17.208;2023-04-25T17:09:51;11.00;98.90
40696;DHT22;40425;51.102;17.208;2023-04-25T17:14:52;11.00;99.90
40696;DHT22;40425;51.102;17.208;2023-04-25T17:19:54;10.40;99.90
40696;DHT22;40425;51.102;17.208;2023-04-25T17:24:55;9.60;99.90
40696;DHT22;40425;51.102;17.208;2023-04-25T17:29:57;9.20;99.90
40696;DHT22;40425;51.102;17.208;2023-04-25T17:34:59;8.80;99.90
40696;DHT22;40425;51.102;17.208;2023-04-25T17:40:00;8.50;99.90
40696;DHT22;40425;51.102;17.208;2023-04-25T17:45:01;8.50;99.90
40696;DHT22;40425;51.102;17.208;2023-04-25T17:50:02;8.50;99.90
40696;DHT22;40425;51.102;17.208;2023-04-25T17:55:07;8.50;99.90
40696;DHT22;40425;51.102;17.208;2023-04-25T18:00:08;8.60;99.90
40696;DHT22;40425;51.102;17.208;2023-04-25T18:05:10;8.70;99.90
40696;DHT22;40425;51.102;17.208;2023-04-25T18:10:13;8.80;99.90
40696;DHT22;40425;51.102;17.208;2023-04-25T18:15:13;9.00;99.90
40696;DHT22;40425;51.102;17.208;2023-04-25T18:20:16;9.10;99.90
40696;DHT22;40425;51.102;17.208;2023-04-25T18:25:18;9.10;99.90
40696;DHT22;40425;51.102;17.208;2023-04-25T18:30:19;9.20;99.90
40696;DHT22;40425;51.102;17.208;2023-04-25T18:35:21;9.30;99.90
40696;DHT22;40425;51.102;17.208;2023-04-25T18:40:22;9.30;99.90
40696;DHT22;40425;51.102;17.208;2023-04-25T18:45:22;9.30;99.90
40696;DHT22;40425;51.102;17.208;2023-04-25T18:50:24;9.30;99.90
40696;DHT22;40425;51.102;17.208;2023-04-25T18:55:26;9.40;99.90
40696;DHT22;40425;51.102;17.208;2023-04-25T19:00:28;9.30;99.90
40696;DHT22;40425;51.102;17.208;2023-04-25T19:05:30;9.40;99.90
40696;DHT22;40425;51.102;17.208;2023-04-25T19:10:33;9.30;99.90
40696;DHT22;40425;51.102;17.208;2023-04-25T19:15:37;9.30;99.90
40696;DHT22;40425;51.102;17.208;2023-04-25T19:20:42;9.30;99.90
40696;DHT22;40425;51.102;17.208;2023-04-25T19:25:54;9.20;99.90
40696;DHT22;40425;51.102;17.208;2023-04-25T19:31:04;9.10;99.90
40696;DHT22;40425;51.102;17.208;2023-04-25T19:36:08;9.00;99.90
40696;DHT22;40425;51.102;17.208;2023-04-25T19:41:09;8.90;99.90
40696;DHT22;40425;51.102;17.208;2023-04-25T19:46:11;8.70;99.90
40696;DHT22;40425;51.102;17.208;2023-04-25T19:51:12;8.50;99.90
40696;DHT22;40425;51.102;17.208;2023-04-25T19:56:14;8.30;99.90
40696;DHT22;40425;51.102;17.208;2023-04-25T20:01:15;8.20;99.90
40696;DHT22;40425;51.102;17.208;2023-04-25T20:06:16;8.00;99.90
40696;DHT22;40425;51.102;17.208;2023-04-25T20:11:18;8.00;99.90
40696;DHT22;40425;51.102;17.208;2023-04-25T20:16:19;7.90;99.90
40696;DHT22;40425;51.102;17.208;2023-04-25T20:21:21;7.70;99.90
40696;DHT22;40425;51.102;17.208;2023-04-25T20:26:22;7.70;99.90
40696;DHT22;40425;51.102;17.208;2023-04-25T20:31:25;7.60;99.90
40696;DHT22;40425;51.102;17.208;2023-04-25T20:36:26;7.40;99.90
40696;DHT22;40425;51.102;17.208;2023-04-25T20:41:27;7.40;99.90
40696;DHT22;40425;51.102;17.208;2023-04-25T20:46:28;7.30;99.90
40696;DHT22;40425;51.102;17.208;2023-04-25T20:51:30;7.20;99.90
40696;DHT22;40425;51.102;17.208;2023-04-25T20:56:32;7.20;99.90
40696;DHT22;40425;51.102;17.208;2023-04-25T21:01:33;7.20;99.90
40696;DHT22;40425;51.102;17.208;2023-04-25T21:06:33;7.10;99.90
40696;DHT22;40425;51.102;17.208;2023-04-25T21:11:34;7.00;99.90
40696;DHT22;40425;51.102;17.208;2023-04-25T21:16:35;7.00;99.90
40696;DHT22;40425;51.102;17.208;2023-04-25T21:21:38;6.90;99.90
40696;DHT22;40425;51.102;17.208;2023-04-25T21:26:39;6.90;99.90
40696;DHT22;40425;51.102;17.208;2023-04-25T21:31:40;6.80;99.90
40696;DHT22;40425;51.102;17.208;2023-04-25T21:36:41;6.70;99.90
40696;DHT22;40425;51.102;17.208;2023-04-25T21:41:43;6.70;99.90
40696;DHT22;40425;51.102;17.208;2023-04-25T21:46:44;6.60;99.90
40696;DHT22;40425;51.102;17.208;2023-04-25T21:51:45;6.60;99.90
40696;DHT22;40425;51.102;17.208;2023-04-25T21:56:46;6.50;99.90
40696;DHT22;40425;51.102;17.208;2023-04-25T22:01:47;6.40;99.90
40696;DHT22;40425;51.102;17.208;2023-04-25T22:06:48;6.30;99.90
40696;DHT22;40425;51.102;17.208;2023-04-25T22:11:49;6.30;99.90
40696;DHT22;40425;51.102;17.208;2023-04-25T22:16:53;6.30;99.90
40696;DHT22;40425;51.102;17.208;2023-04-25T22:21:55;6.30;99.90
40696;DHT22;40425;51.102;17.208;2023-04-25T22:26:56;6.30;99.90
40696;DHT22;40425;51.102;17.208;2023-04-25T22:31:58;6.20;99.90
40696;DHT22;40425;51.102;17.208;2023-04-25T22:36:59;6.10;99.90
40696;DHT22;40425;51.102;17.208;2023-04-25T22:42:00;6.00;99.90
40696;DHT22;40425;51.102;17.208;2023-04-25T22:47:02;6.00;99.90
40696;DHT22;40425;51.102;17.208;2023-04-25T22:52:03;5.90;99.90
40696;DHT22;40425;51.102;17.208;2023-04-25T22:57:06;5.80;99.90
40696;DHT22;40425;51.102;17.208;2023-04-25T23:02:07;5.90;99.90
40696;DHT22;40425;51.102;17.208;2023-04-25T23:07:08;5.80;99.90
40696;DHT22;40425;51.102;17.208;2023-04-25T23:12:10;5.80;99.90
40696;DHT22;40425;51.102;17.208;2023-04-25T23:17:11;5.70;99.90
40696;DHT22;40425;51.102;17.208;2023-04-25T23:22:12;5.70;99.90
40696;DHT22;40425;51.102;17.208;2023-04-25T23:27:14;5.60;99.90
40696;DHT22;40425;51.102;17.208;2023-04-25T23:32:15;5.60;99.90
40696;DHT22;40425;51.102;17.208;2023-04-25T23:37:16;5.60;99.90
40696;DHT22;40425;51.102;17.208;2023-04-25T23:42:17;5.60;99.90
40696;DHT22;40425;51.102;17.208;2023-04-25T23:47:19;5.50;99.90
40696;DHT22;40425;51.102;17.208;2023-04-25T23:52:20;5.40;99.90
40696;DHT22;40425;51.102;17.208;2023-04-25T23:57:21;5.40;99.90
